Airfield :
LOGIN :

Register | Disclaimer

   EN    FR    IT 

 










Legend :    VFR   Marginal VFR   IFR   Intensive IFR   Very Intensive IFR
Visi :
Ceiling :
>= 8 km
>= 3000ft
5 to 8 km
1000 to 3000 ft
1500m to 5 km
500 to 1000 ft
800 to 1500m
200 to 500 ft
< 800m
< 200 ft
Symbols :   Thunderstorms  Fog  Heavy snow  Heavy precipitations  Wind > 20 kt
SIGMETs :     Misc.  Thunderstorms  Icing  Turbulence  Mountain Waves  Volcanic Ashes






- Airport Elevation : 39 ft
- IATA code : CTA


LICC - Catania Fontanarossa

CURRENT METAR :
  • 121050Z 08013KT CAVOK 21/12 Q1024

EXPIRED METARs :
  • 121020Z 07012KT CAVOK 21/12 Q1024
  • 120950Z 08011KT CAVOK 21/13 Q1024
  • 120920Z 06008KT CAVOK 20/12 Q1024
  • 120850Z 08007KT CAVOK 19/11 Q1024
  • 120820Z 07004KT 020V110 CAVOK 19/11 Q1024
  • 120750Z VRB01KT CAVOK 18/11 Q1024
  • 120720Z 26003KT 220V300 CAVOK 17/11 Q1024
  • 120650Z 22004KT CAVOK 14/11 Q1024
  • 120620Z 24004KT CAVOK 13/10 Q1024

TAF TAF LICC
Valid from the 12 at 06:00 until the 13 at 06:00 UTC


120500Z 1206/1306 VRB05KT CAVOK
BECMG 1206/1208 08014KT
BECMG 1217/1219 VRB05KT



MET'MAP, your aeronautical weather chart ! - Copyright ORBIFLY December 2007 - Disclaimer

ORBIFLY MET'MAP TEAM :

Programming & Development : Alexandra Zaïnal
Original concept : Baudouin d'Aumeries
Technical & hardware support : Manuel Goepfert
Assistance : Marc-Olivier Méhu




SOURCES & CREDITS :

   NOAA